createdAt,value
2022-11-12T00:02:42.912Z,14.02
2022-11-12T00:08:14.016Z,14.65
2022-11-12T00:10:59.404Z,15.55
2022-11-12T00:13:45.186Z,17.98
2022-11-12T00:16:30.562Z,18.98
2022-11-12T00:19:16.282Z,18.23
2022-11-12T00:22:01.667Z,18.35
2022-11-12T00:24:47.284Z,17.02
2022-11-12T00:30:19.059Z,18.63
2022-11-12T00:33:06.022Z,18.48
2022-11-12T00:35:51.663Z,17.83
2022-11-12T00:38:37.499Z,16.23
2022-11-12T00:41:23.105Z,18.33
2022-11-12T00:46:54.352Z,18.50
2022-11-12T00:49:39.759Z,16.67
2022-11-12T00:52:25.241Z,19.10
2022-11-12T00:55:11.325Z,17.23
2022-11-12T00:57:59.358Z,18.00
2022-11-12T01:00:45.035Z,17.83
2022-11-12T01:03:30.633Z,18.02
2022-11-12T01:06:20.743Z,17.95
2022-11-12T01:09:07.965Z,15.77
2022-11-12T01:11:53.878Z,18.15
2022-11-12T01:14:39.607Z,18.83
2022-11-12T01:20:11.035Z,16.70
2022-11-12T01:22:56.628Z,18.33
2022-11-12T01:28:29.371Z,16.43
2022-11-12T01:31:25.642Z,17.55
2022-11-12T01:34:11.490Z,18.15
2022-11-12T01:36:56.991Z,17.77
2022-11-12T01:39:42.331Z,18.17
2022-11-12T01:42:32.648Z,16.83
2022-11-12T01:45:17.937Z,16.55
2022-11-12T01:48:04.482Z,17.52
2022-11-12T01:50:50.755Z,17.60
2022-11-12T01:53:46.033Z,16.92
2022-11-12T01:56:32.532Z,17.15
2022-11-12T01:59:38.456Z,17.23
2022-11-12T02:02:24.802Z,16.83
2022-11-12T02:05:13.288Z,14.93
2022-11-12T02:08:01.252Z,15.70
2022-11-12T02:10:46.646Z,15.73
2022-11-12T02:16:40.041Z,14.35
2022-11-12T02:19:26.504Z,14.57
2022-11-12T02:22:11.923Z,14.82
2022-11-12T02:24:57.745Z,14.95
2022-11-12T02:27:44.596Z,14.18
2022-11-12T02:30:42.927Z,11.88
2022-11-12T02:33:28.502Z,13.32
2022-11-12T02:36:14.285Z,13.25
2022-11-12T02:39:00.042Z,13.35
2022-11-12T02:41:45.385Z,12.10
2022-11-12T02:44:31.535Z,12.23
2022-11-12T02:47:16.870Z,12.52
2022-11-12T02:52:48.002Z,12.43
2022-11-12T02:55:33.439Z,13.23
2022-11-12T02:58:22.560Z,13.45
2022-11-12T03:01:08.210Z,12.90
2022-11-12T03:03:53.968Z,13.07
2022-11-12T03:06:40.030Z,13.02
2022-11-12T03:09:25.684Z,12.60
2022-11-12T03:12:11.244Z,12.25
2022-11-12T03:14:56.988Z,12.48
2022-11-12T03:17:42.221Z,12.60
2022-11-12T03:20:29.801Z,12.57
2022-11-12T03:23:15.285Z,12.38
2022-11-12T03:26:04.365Z,13.68
2022-11-12T03:28:51.728Z,14.23
2022-11-12T03:31:38.930Z,13.02
2022-11-12T03:34:24.532Z,13.52
2022-11-12T03:37:10.304Z,13.88
2022-11-12T03:39:55.787Z,13.50
2022-11-12T03:42:49.690Z,12.73
2022-11-12T03:45:35.035Z,13.70
2022-11-12T03:48:20.590Z,13.90
2022-11-12T03:51:06.047Z,12.75
2022-11-12T03:53:51.476Z,12.75
2022-11-12T03:56:36.883Z,12.93
2022-11-12T03:59:22.424Z,12.75
2022-11-12T04:02:08.018Z,12.90
2022-11-12T04:05:13.592Z,12.50
2022-11-12T04:08:25.469Z,13.18
2022-11-12T04:11:14.915Z,13.43
2022-11-12T04:14:00.538Z,12.27
2022-11-12T04:17:04.446Z,12.43
2022-11-12T04:20:08.431Z,11.40
2022-11-12T04:22:54.219Z,11.90
2022-11-12T04:25:58.915Z,11.63
2022-11-12T04:29:04.640Z,11.18
2022-11-12T04:31:50.062Z,11.47
2022-11-12T04:34:35.692Z,11.63
2022-11-12T04:37:24.474Z,11.27
2022-11-12T04:40:44.539Z,11.30
2022-11-12T04:43:48.867Z,11.00
2022-11-12T04:46:34.445Z,10.07
2022-11-12T04:52:05.576Z,9.95
2022-11-12T04:54:51.884Z,9.55
2022-11-12T04:57:38.661Z,10.27
2022-11-12T05:00:24.765Z,9.70
2022-11-12T05:03:11.123Z,10.73
2022-11-12T05:06:29.920Z,8.98
2022-11-12T05:09:15.467Z,8.50
2022-11-12T05:12:01.115Z,8.80
2022-11-12T05:14:46.758Z,8.65
2022-11-12T05:17:32.052Z,7.55
2022-11-12T05:20:18.234Z,7.35
2022-11-12T05:23:07.736Z,7.43
2022-11-12T05:25:53.127Z,7.85
2022-11-12T05:28:38.478Z,7.18
2022-11-12T05:34:09.791Z,7.65
2022-11-12T05:36:55.779Z,7.72
2022-11-12T05:42:27.020Z,7.85
2022-11-12T05:45:13.210Z,7.28
2022-11-12T05:51:06.076Z,8.52
2022-11-12T05:53:49.843Z,8.95
2022-11-12T05:59:22.230Z,9.05
2022-11-12T06:02:07.881Z,9.20
2022-11-12T06:04:53.446Z,9.95
2022-11-12T06:07:39.204Z,11.48
2022-11-12T06:10:25.072Z,10.23
2022-11-12T06:13:10.622Z,11.38
2022-11-12T06:15:56.862Z,11.13
2022-11-12T06:18:42.141Z,10.45
2022-11-12T06:21:28.048Z,12.60
2022-11-12T06:24:14.226Z,11.98
2022-11-12T06:26:59.858Z,12.55
2022-11-12T06:29:45.287Z,12.68
2022-11-12T06:32:31.074Z,14.27
2022-11-12T06:38:03.635Z,13.10
2022-11-12T06:40:48.914Z,15.88
2022-11-12T06:43:35.718Z,10.68
2022-11-12T06:46:21.657Z,11.90
2022-11-12T06:49:07.214Z,10.80
2022-11-12T06:51:52.715Z,10.82
2022-11-12T06:54:38.130Z,10.70
2022-11-12T06:57:23.475Z,10.48
2022-11-12T07:00:11.724Z,10.27
2022-11-12T07:02:56.972Z,11.55
2022-11-12T07:05:42.528Z,11.55
2022-11-12T07:08:28.187Z,11.43
2022-11-12T07:11:14.013Z,12.25
2022-11-12T07:16:44.985Z,12.65
2022-11-12T07:19:30.790Z,14.50
2022-11-12T07:22:16.258Z,14.60
2022-11-12T07:25:01.658Z,14.55
2022-11-12T07:30:32.391Z,14.73
2022-11-12T07:36:15.970Z,15.00
2022-11-12T07:39:01.382Z,15.00
2022-11-12T07:41:46.925Z,15.30
2022-11-12T07:44:32.317Z,13.98
2022-11-12T07:47:17.516Z,16.10
2022-11-12T07:52:48.777Z,15.70
2022-11-12T07:55:34.110Z,14.63
2022-11-12T08:01:41.724Z,19.08
2022-11-12T08:04:27.367Z,19.80
2022-11-12T08:07:13.189Z,17.23
2022-11-12T08:09:59.088Z,17.65
2022-11-12T08:12:44.509Z,17.60
2022-11-12T08:18:17.344Z,16.77
2022-11-12T08:21:05.968Z,20.63
2022-11-12T08:23:51.947Z,17.83
2022-11-12T08:26:37.613Z,21.33
2022-11-12T08:32:08.871Z,18.47
2022-11-12T08:37:39.946Z,16.10
2022-11-12T08:40:27.348Z,14.90
2022-11-12T08:43:13.013Z,15.65
2022-11-12T08:46:00.687Z,13.52
2022-11-12T08:48:46.565Z,14.13
2022-11-12T08:54:18.278Z,12.57
2022-11-12T08:57:08.364Z,12.85
2022-11-12T08:59:56.859Z,12.27
2022-11-12T09:02:45.006Z,12.63
2022-11-12T09:05:35.978Z,11.23
2022-11-12T09:08:30.478Z,12.20
2022-11-12T09:11:16.657Z,13.35
2022-11-12T09:14:01.992Z,13.35
2022-11-12T09:16:47.362Z,11.82
2022-11-12T09:19:32.753Z,11.95
2022-11-12T09:22:21.317Z,10.82
2022-11-12T09:25:07.661Z,11.43
2022-11-12T09:27:54.546Z,11.35
2022-11-12T09:30:55.647Z,10.73
2022-11-12T09:33:41.108Z,10.07
2022-11-12T09:39:12.298Z,10.23
2022-11-12T09:42:02.004Z,9.57
2022-11-12T09:45:03.809Z,9.00
2022-11-12T09:48:02.168Z,9.25
2022-11-12T09:51:10.756Z,8.65
2022-11-12T09:54:00.046Z,9.43
2022-11-12T09:56:49.539Z,8.65
2022-11-12T09:59:42.077Z,8.52
2022-11-12T10:02:49.151Z,8.77
2022-11-12T10:06:07.211Z,8.07
2022-11-12T10:09:20.191Z,7.68
2022-11-12T10:12:48.118Z,8.00
2022-11-12T10:16:16.311Z,8.05
2022-11-12T10:19:26.278Z,8.23
2022-11-12T10:22:40.049Z,7.03
2022-11-12T10:25:26.372Z,7.57
2022-11-12T10:28:26.711Z,7.57
2022-11-12T10:31:17.451Z,8.10
2022-11-12T10:34:16.003Z,7.07
2022-11-12T10:37:23.873Z,7.78
2022-11-12T10:40:40.979Z,6.93
2022-11-12T10:43:27.217Z,7.38
2022-11-12T10:46:28.290Z,6.97
2022-11-12T10:49:16.887Z,7.07
2022-11-12T10:52:26.211Z,7.13
2022-11-12T10:55:22.499Z,6.95
2022-11-12T10:58:11.134Z,7.10
2022-11-12T11:01:07.324Z,7.95
2022-11-12T11:03:58.446Z,6.63
2022-11-12T11:06:44.405Z,6.68
2022-11-12T11:09:30.998Z,7.15
2022-11-12T11:12:26.647Z,5.85
2022-11-12T11:15:20.088Z,6.10
2022-11-12T11:18:10.767Z,6.25
2022-11-12T11:21:31.800Z,5.95
2022-11-12T11:24:37.487Z,5.90
2022-11-12T11:27:56.498Z,5.83
2022-11-12T11:31:22.262Z,6.60
2022-11-12T11:34:28.067Z,7.30
2022-11-12T11:37:34.378Z,7.88
2022-11-12T11:49:31.479Z,6.85
2022-11-12T11:52:44.354Z,6.68
2022-11-12T11:55:54.769Z,7.43
2022-11-12T11:59:14.031Z,6.95
2022-11-12T12:02:33.092Z,7.68
2022-11-12T12:05:50.109Z,6.80
2022-11-12T12:13:24.138Z,6.28
2022-11-12T12:17:02.641Z,6.10
2022-11-12T12:20:25.533Z,5.78
2022-11-12T12:23:56.677Z,5.95
2022-11-12T12:27:17.365Z,5.57
2022-11-12T12:30:18.239Z,5.22
2022-11-12T12:33:44.114Z,4.85
2022-11-12T12:36:44.433Z,4.88
2022-11-12T12:40:56.114Z,4.57
2022-11-12T12:44:09.686Z,5.07
2022-11-12T12:47:00.969Z,5.03
2022-11-12T12:49:49.357Z,4.80
2022-11-12T12:53:04.373Z,4.97
2022-11-12T12:56:02.725Z,4.43
2022-11-12T12:58:50.617Z,4.80
2022-11-12T13:01:37.006Z,4.82
2022-11-12T13:04:57.298Z,4.30
2022-11-12T13:07:49.718Z,4.60
2022-11-12T13:10:48.560Z,5.00
2022-11-12T13:13:38.267Z,4.40
2022-11-12T13:17:11.832Z,4.78
2022-11-12T13:19:57.332Z,5.32
2022-11-12T13:22:51.691Z,4.40
2022-11-12T13:25:42.339Z,4.47
2022-11-12T13:28:31.122Z,4.47
2022-11-12T13:31:28.717Z,4.45
2022-11-12T13:34:34.626Z,4.57
2022-11-12T13:40:44.050Z,4.43
2022-11-12T13:44:21.944Z,4.65
2022-11-12T13:47:29.414Z,4.20
2022-11-12T13:50:25.857Z,4.03
2022-11-12T13:53:37.517Z,4.40
2022-11-12T13:56:35.888Z,4.55
2022-11-12T13:59:25.229Z,4.50
2022-11-12T14:02:23.773Z,3.60
2022-11-12T14:05:20.404Z,3.45
2022-11-12T14:08:36.976Z,3.80
2022-11-12T14:11:59.891Z,3.78
2022-11-12T14:15:28.344Z,3.95
2022-11-12T14:18:38.904Z,4.38
2022-11-12T14:21:24.411Z,3.85
2022-11-12T14:24:13.062Z,4.07
2022-11-12T14:26:58.623Z,3.55
2022-11-12T14:32:37.349Z,4.47
2022-11-12T14:35:34.590Z,4.40
2022-11-12T14:38:24.435Z,4.95
2022-11-12T14:41:35.249Z,4.72
2022-11-12T14:44:38.084Z,10.32
2022-11-12T14:47:24.228Z,8.35
2022-11-12T14:50:37.448Z,5.28
2022-11-12T14:53:32.948Z,5.30
2022-11-12T14:56:38.169Z,4.78
2022-11-12T14:59:23.734Z,4.38
2022-11-12T15:05:27.397Z,5.20
2022-11-12T15:08:13.266Z,5.03
2022-11-12T15:11:26.851Z,5.05
2022-11-12T15:14:24.381Z,4.75
2022-11-12T15:17:30.919Z,5.00
2022-11-12T15:20:19.466Z,5.35
2022-11-12T15:23:05.737Z,6.68
2022-11-12T15:25:59.758Z,5.55
2022-11-12T15:29:10.278Z,5.15
2022-11-12T15:32:03.458Z,5.50
2022-11-12T15:34:50.344Z,5.22
2022-11-12T15:37:43.024Z,4.20
2022-11-12T15:40:29.695Z,4.97
2022-11-12T15:43:25.306Z,5.50
2022-11-12T15:46:15.421Z,4.32
2022-11-12T15:49:20.530Z,5.07
2022-11-12T15:52:41.179Z,4.95
2022-11-12T15:55:52.424Z,4.68
2022-11-12T15:58:40.376Z,4.72
2022-11-12T16:01:28.738Z,5.05
2022-11-12T16:04:14.487Z,4.55
2022-11-12T16:08:03.280Z,4.70
2022-11-12T16:11:35.978Z,5.25
2022-11-12T16:14:24.769Z,5.03
2022-11-12T16:17:22.301Z,5.47
2022-11-12T16:20:17.617Z,4.53
2022-11-12T16:23:03.530Z,5.20
2022-11-12T16:25:49.517Z,5.20
2022-11-12T16:28:38.071Z,5.20
2022-11-12T16:31:24.602Z,5.20
2022-11-12T16:34:13.434Z,4.30
2022-11-12T16:37:04.118Z,4.60
2022-11-12T16:39:49.715Z,5.15
2022-11-12T16:42:45.725Z,4.93
2022-11-12T16:45:43.639Z,4.68
2022-11-12T16:48:29.499Z,5.07
2022-11-12T16:51:47.108Z,4.60
2022-11-12T16:54:42.594Z,3.70
2022-11-12T16:57:51.800Z,3.97
2022-11-12T17:00:42.091Z,4.88
2022-11-12T17:03:32.032Z,4.70
2022-11-12T17:06:18.135Z,4.68
2022-11-12T17:09:11.908Z,4.30
2022-11-12T17:11:57.694Z,3.95
2022-11-12T17:14:43.437Z,4.55
2022-11-12T17:17:37.584Z,4.28
2022-11-12T17:20:23.009Z,4.20
2022-11-12T17:23:08.877Z,4.18
2022-11-12T17:26:02.056Z,4.35
2022-11-12T17:28:49.933Z,4.03
2022-11-12T17:31:38.006Z,4.10
2022-11-12T17:34:23.909Z,4.60
2022-11-12T17:39:55.031Z,4.83
2022-11-12T17:42:40.710Z,5.25
2022-11-12T17:45:25.868Z,4.78
2022-11-12T17:56:37.108Z,5.25
2022-11-12T17:59:58.555Z,5.60
2022-11-12T18:03:11.742Z,5.82
2022-11-12T18:10:59.465Z,6.60
2022-11-12T18:13:55.064Z,6.85
2022-11-12T18:17:08.120Z,6.32
2022-11-12T18:19:57.778Z,6.95
2022-11-12T18:22:44.999Z,7.35
2022-11-12T18:25:34.618Z,6.75
2022-11-12T18:28:24.150Z,6.55
2022-11-12T18:31:24.867Z,7.28
2022-11-12T18:34:14.896Z,6.70
2022-11-12T18:37:32.940Z,6.63
2022-11-12T18:40:19.868Z,6.55
2022-11-12T18:43:05.682Z,8.38
2022-11-12T18:48:43.445Z,7.35
2022-11-12T18:51:29.119Z,7.25
2022-11-12T18:54:16.147Z,7.63
2022-11-12T18:57:01.546Z,6.45
2022-11-12T18:59:47.859Z,7.18
2022-11-12T19:02:33.528Z,7.43
2022-11-12T19:05:20.962Z,7.00
2022-11-12T19:08:06.809Z,6.53
2022-11-12T19:13:49.647Z,7.28
2022-11-12T19:16:35.552Z,7.55
2022-11-12T19:19:20.996Z,8.10
2022-11-12T19:22:06.659Z,8.93
2022-11-12T19:24:52.997Z,8.63
2022-11-12T19:27:38.414Z,7.80
2022-11-12T19:30:23.619Z,9.07
2022-11-12T19:33:08.942Z,8.38
2022-11-12T19:35:54.561Z,7.68
2022-11-12T19:38:40.388Z,8.05
2022-11-12T19:44:11.472Z,8.23
2022-11-12T19:46:58.786Z,7.97
2022-11-12T19:49:44.580Z,7.82
2022-11-12T19:52:29.709Z,7.60
2022-11-12T19:55:15.187Z,8.57
2022-11-12T19:58:01.233Z,8.68
2022-11-12T20:04:25.702Z,8.02
2022-11-12T20:10:00.847Z,8.83
2022-11-12T20:12:47.023Z,7.88
2022-11-12T20:18:18.659Z,9.27
2022-11-12T20:21:04.956Z,8.55
2022-11-12T20:23:50.645Z,9.27
2022-11-12T20:26:48.717Z,10.00
2022-11-12T20:29:34.374Z,10.45
2022-11-12T20:32:22.756Z,9.80
2022-11-12T20:35:15.234Z,9.90
2022-11-12T20:38:05.100Z,9.75
2022-11-12T20:40:58.858Z,10.77
2022-11-12T20:43:44.589Z,9.43
2022-11-12T20:49:15.937Z,9.60
2022-11-12T20:52:01.748Z,8.82
2022-11-12T20:54:47.004Z,9.25
2022-11-12T20:57:32.700Z,10.18
2022-11-12T21:03:09.481Z,10.63
2022-11-12T21:06:04.365Z,9.82
2022-11-12T21:08:50.767Z,10.93
2022-11-12T21:11:36.505Z,9.82
2022-11-12T21:14:22.613Z,10.25
2022-11-12T21:17:08.352Z,10.30
2022-11-12T21:19:53.543Z,9.75
2022-11-12T21:22:39.392Z,10.43
2022-11-12T21:25:25.366Z,10.00
2022-11-12T21:28:10.913Z,10.48
2022-11-12T21:31:06.588Z,10.25
2022-11-12T21:33:58.329Z,10.15
2022-11-12T21:36:44.145Z,10.45
2022-11-12T21:39:29.480Z,10.90
2022-11-12T21:42:15.347Z,11.10
2022-11-12T21:45:00.968Z,10.77
2022-11-12T21:47:46.752Z,9.65
2022-11-12T21:50:32.521Z,9.63
2022-11-12T21:56:14.072Z,11.77
2022-11-12T22:01:46.678Z,10.48
2022-11-12T22:04:32.220Z,9.80
2022-11-12T22:07:17.768Z,11.40
2022-11-12T22:10:03.584Z,11.68
2022-11-12T22:15:54.097Z,12.18
2022-11-12T22:18:40.797Z,11.93
2022-11-12T22:21:38.404Z,14.23
2022-11-12T22:24:25.521Z,17.15
2022-11-12T22:27:10.958Z,18.52
2022-11-12T22:29:56.375Z,18.90
2022-11-12T22:32:41.887Z,21.77
2022-11-12T22:35:27.450Z,24.70
2022-11-12T22:38:13.311Z,24.42
2022-11-12T22:41:11.164Z,23.95
2022-11-12T22:44:02.205Z,25.40
2022-11-12T22:46:47.690Z,21.80
2022-11-12T22:49:32.875Z,24.95
2022-11-12T22:52:18.739Z,22.38
2022-11-12T22:57:50.283Z,24.05
2022-11-12T23:00:35.776Z,23.33
2022-11-12T23:03:21.040Z,22.40
2022-11-12T23:06:06.842Z,21.52
2022-11-12T23:08:57.483Z,22.50
2022-11-12T23:11:42.919Z,22.98
2022-11-12T23:14:28.332Z,20.75
2022-11-12T23:17:13.963Z,23.65
2022-11-12T23:19:59.329Z,21.38
2022-11-12T23:22:44.663Z,23.70
2022-11-12T23:28:18.555Z,23.63
2022-11-12T23:31:10.252Z,22.45
2022-11-12T23:33:58.882Z,21.90
2022-11-12T23:36:44.430Z,21.38
2022-11-12T23:39:30.259Z,24.48
2022-11-12T23:45:00.867Z,22.45
2022-11-12T23:47:46.570Z,22.65
2022-11-12T23:50:31.831Z,21.60
2022-11-12T23:56:06.306Z,20.83
2022-11-12T23:58:55.183Z,20.90
